sensor_id;sensor_type;location;lat;lon;timestamp;P1;P2;P0
64613;PMS5003;51025;37.772;-122.432;2023-04-24T00:01:10;9;9;
64613;PMS5003;51025;37.772;-122.432;2023-04-24T00:03:37;7;6;
64613;PMS5003;51025;37.772;-122.432;2023-04-24T00:06:06;10;10;
64613;PMS5003;51025;37.772;-122.432;2023-04-24T00:08:34;10;10;
64613;PMS5003;51025;37.772;-122.432;2023-04-24T00:11:01;8;6;
64613;PMS5003;51025;37.772;-122.432;2023-04-24T00:13:30;8;7;
64613;PMS5003;51025;37.772;-122.432;2023-04-24T00:15:58;8;8;
64613;PMS5003;51025;37.772;-122.432;2023-04-24T00:18:26;15;11;
64613;PMS5003;51025;37.772;-122.432;2023-04-24T00:20:55;10;8;
64613;PMS5003;51025;37.772;-122.432;2023-04-24T00:23:22;7;7;
64613;PMS5003;51025;37.772;-122.432;2023-04-24T00:25:51;13;11;
64613;PMS5003;51025;37.772;-122.432;2023-04-24T00:28:19;8;6;
64613;PMS5003;51025;37.772;-122.432;2023-04-24T00:30:48;12;9;
64613;PMS5003;51025;37.772;-122.432;2023-04-24T00:33:16;11;10;
64613;PMS5003;51025;37.772;-122.432;2023-04-24T00:35:45;11;9;
64613;PMS5003;51025;37.772;-122.432;2023-04-24T00:38:13;12;8;
64613;PMS5003;51025;37.772;-122.432;2023-04-24T00:40:41;9;8;
64613;PMS5003;51025;37.772;-122.432;2023-04-24T00:43:09;8;8;
64613;PMS5003;51025;37.772;-122.432;2023-04-24T00:45:38;8;8;
64613;PMS5003;51025;37.772;-122.432;2023-04-24T00:48:06;11;8;
64613;PMS5003;51025;37.772;-122.432;2023-04-24T00:50:36;9;8;
64613;PMS5003;51025;37.772;-122.432;2023-04-24T00:53:04;9;8;
64613;PMS5003;51025;37.772;-122.432;2023-04-24T00:55:32;7;6;
64613;PMS5003;51025;37.772;-122.432;2023-04-24T00:58:00;10;8;
64613;PMS5003;51025;37.772;-122.432;2023-04-24T01:00:28;6;6;
64613;PMS5003;51025;37.772;-122.432;2023-04-24T01:02:57;7;7;
64613;PMS5003;51025;37.772;-122.432;2023-04-24T01:05:28;11;8;
64613;PMS5003;51025;37.772;-122.432;2023-04-24T01:07:57;9;8;
64613;PMS5003;51025;37.772;-122.432;2023-04-24T01:10:27;16;15;
64613;PMS5003;51025;37.772;-122.432;2023-04-24T01:12:56;9;8;
64613;PMS5003;51025;37.772;-122.432;2023-04-24T01:15:25;10;7;
64613;PMS5003;51025;37.772;-122.432;2023-04-24T01:17:54;9;6;
64613;PMS5003;51025;37.772;-122.432;2023-04-24T01:20:22;9;8;
64613;PMS5003;51025;37.772;-122.432;2023-04-24T01:22:52;11;8;
64613;PMS5003;51025;37.772;-122.432;2023-04-24T01:25:22;7;7;
64613;PMS5003;51025;37.772;-122.432;2023-04-24T01:27:51;11;9;
64613;PMS5003;51025;37.772;-122.432;2023-04-24T01:30:20;14;11;
64613;PMS5003;51025;37.772;-122.432;2023-04-24T01:32:48;13;9;
64613;PMS5003;51025;37.772;-122.432;2023-04-24T01:35:16;12;9;
64613;PMS5003;51025;37.772;-122.432;2023-04-24T01:37:45;16;14;
64613;PMS5003;51025;37.772;-122.432;2023-04-24T01:40:14;15;9;
64613;PMS5003;51025;37.772;-122.432;2023-04-24T01:42:42;11;11;
64613;PMS5003;51025;37.772;-122.432;2023-04-24T01:45:11;10;9;
64613;PMS5003;51025;37.772;-122.432;2023-04-24T01:47:39;13;12;
64613;PMS5003;51025;37.772;-122.432;2023-04-24T01:50:09;9;9;
64613;PMS5003;51025;37.772;-122.432;2023-04-24T01:52:37;10;8;
64613;PMS5003;51025;37.772;-122.432;2023-04-24T01:55:07;15;9;
64613;PMS5003;51025;37.772;-122.432;2023-04-24T01:57:36;8;7;
64613;PMS5003;51025;37.772;-122.432;2023-04-24T02:00:05;12;11;
64613;PMS5003;51025;37.772;-122.432;2023-04-24T02:02:34;15;11;
64613;PMS5003;51025;37.772;-122.432;2023-04-24T02:05:02;15;12;
64613;PMS5003;51025;37.772;-122.432;2023-04-24T02:07:32;12;7;
64613;PMS5003;51025;37.772;-122.432;2023-04-24T02:10:00;12;9;
64613;PMS5003;51025;37.772;-122.432;2023-04-24T02:12:29;11;8;
64613;PMS5003;51025;37.772;-122.432;2023-04-24T02:14:57;9;9;
64613;PMS5003;51025;37.772;-122.432;2023-04-24T02:17:25;10;8;
64613;PMS5003;51025;37.772;-122.432;2023-04-24T02:19:54;15;14;
64613;PMS5003;51025;37.772;-122.432;2023-04-24T02:22:21;10;10;
64613;PMS5003;51025;37.772;-122.432;2023-04-24T02:24:50;14;9;
64613;PMS5003;51025;37.772;-122.432;2023-04-24T02:27:18;13;11;
64613;PMS5003;51025;37.772;-122.432;2023-04-24T02:29:46;19;14;
64613;PMS5003;51025;37.772;-122.432;2023-04-24T02:32:15;13;12;
64613;PMS5003;51025;37.772;-122.432;2023-04-24T02:34:43;16;13;
64613;PMS5003;51025;37.772;-122.432;2023-04-24T02:37:11;10;10;
64613;PMS5003;51025;37.772;-122.432;2023-04-24T02:39:39;11;10;
64613;PMS5003;51025;37.772;-122.432;2023-04-24T02:42:07;11;10;
64613;PMS5003;51025;37.772;-122.432;2023-04-24T02:44:37;12;10;
64613;PMS5003;51025;37.772;-122.432;2023-04-24T02:47:05;15;10;
64613;PMS5003;51025;37.772;-122.432;2023-04-24T02:49:33;9;7;
64613;PMS5003;51025;37.772;-122.432;2023-04-24T02:52:01;12;10;
64613;PMS5003;51025;37.772;-122.432;2023-04-24T02:54:31;10;8;
64613;PMS5003;51025;37.772;-122.432;2023-04-24T02:57:00;18;15;
64613;PMS5003;51025;37.772;-122.432;2023-04-24T02:59:29;14;10;
64613;PMS5003;51025;37.772;-122.432;2023-04-24T03:01:57;19;16;
64613;PMS5003;51025;37.772;-122.432;2023-04-24T03:04:26;8;8;
64613;PMS5003;51025;37.772;-122.432;2023-04-24T03:06:54;14;12;
64613;PMS5003;51025;37.772;-122.432;2023-04-24T03:09:22;13;11;
64613;PMS5003;51025;37.772;-122.432;2023-04-24T03:11:50;12;12;
64613;PMS5003;51025;37.772;-122.432;2023-04-24T03:14:18;11;10;
64613;PMS5003;51025;37.772;-122.432;2023-04-24T03:16:47;15;12;
64613;PMS5003;51025;37.772;-122.432;2023-04-24T03:19:16;13;10;
64613;PMS5003;51025;37.772;-122.432;2023-04-24T03:21:44;15;12;
64613;PMS5003;51025;37.772;-122.432;2023-04-24T03:24:12;17;14;
64613;PMS5003;51025;37.772;-122.432;2023-04-24T03:26:41;21;15;
64613;PMS5003;51025;37.772;-122.432;2023-04-24T03:29:09;18;16;
64613;PMS5003;51025;37.772;-122.432;2023-04-24T03:31:37;16;14;
64613;PMS5003;51025;37.772;-122.432;2023-04-24T03:34:06;17;16;
64613;PMS5003;51025;37.772;-122.432;2023-04-24T03:36:35;14;12;
64613;PMS5003;51025;37.772;-122.432;2023-04-24T03:39:03;16;12;
64613;PMS5003;51025;37.772;-122.432;2023-04-24T03:41:31;21;16;
64613;PMS5003;51025;37.772;-122.432;2023-04-24T03:44:00;19;18;
64613;PMS5003;51025;37.772;-122.432;2023-04-24T03:46:28;14;12;
64613;PMS5003;51025;37.772;-122.432;2023-04-24T03:48:58;21;12;
64613;PMS5003;51025;37.772;-122.432;2023-04-24T03:51:26;15;15;
64613;PMS5003;51025;37.772;-122.432;2023-04-24T03:53:54;15;13;
64613;PMS5003;51025;37.772;-122.432;2023-04-24T03:56:23;15;15;
64613;PMS5003;51025;37.772;-122.432;2023-04-24T03:58:51;20;17;
64613;PMS5003;51025;37.772;-122.432;2023-04-24T04:01:20;17;15;
64613;PMS5003;51025;37.772;-122.432;2023-04-24T04:03:48;15;12;
64613;PMS5003;51025;37.772;-122.432;2023-04-24T04:06:16;15;12;
64613;PMS5003;51025;37.772;-122.432;2023-04-24T04:08:45;15;15;
64613;PMS5003;51025;37.772;-122.432;2023-04-24T04:11:13;20;14;
64613;PMS5003;51025;37.772;-122.432;2023-04-24T04:13:41;18;16;
64613;PMS5003;51025;37.772;-122.432;2023-04-24T04:16:10;19;14;
64613;PMS5003;51025;37.772;-122.432;2023-04-24T04:18:38;22;19;
64613;PMS5003;51025;37.772;-122.432;2023-04-24T04:21:06;22;17;
64613;PMS5003;51025;37.772;-122.432;2023-04-24T04:23:34;22;17;
64613;PMS5003;51025;37.772;-122.432;2023-04-24T04:26:03;15;14;
64613;PMS5003;51025;37.772;-122.432;2023-04-24T04:28:32;18;14;
64613;PMS5003;51025;37.772;-122.432;2023-04-24T04:31:01;16;15;
64613;PMS5003;51025;37.772;-122.432;2023-04-24T04:33:30;24;20;
64613;PMS5003;51025;37.772;-122.432;2023-04-24T04:35:58;20;18;
64613;PMS5003;51025;37.772;-122.432;2023-04-24T04:38:27;15;13;
64613;PMS5003;51025;37.772;-122.432;2023-04-24T04:40:55;15;12;
64613;PMS5003;51025;37.772;-122.432;2023-04-24T04:43:24;16;16;
64613;PMS5003;51025;37.772;-122.432;2023-04-24T04:45:52;18;12;
64613;PMS5003;51025;37.772;-122.432;2023-04-24T04:48:21;11;11;
64613;PMS5003;51025;37.772;-122.432;2023-04-24T04:50:49;17;13;
64613;PMS5003;51025;37.772;-122.432;2023-04-24T04:53:17;16;13;
64613;PMS5003;51025;37.772;-122.432;2023-04-24T04:55:46;22;17;
64613;PMS5003;51025;37.772;-122.432;2023-04-24T04:58:14;19;14;
64613;PMS5003;51025;37.772;-122.432;2023-04-24T05:00:43;12;11;
64613;PMS5003;51025;37.772;-122.432;2023-04-24T05:03:11;12;11;
64613;PMS5003;51025;37.772;-122.432;2023-04-24T05:05:40;12;11;
64613;PMS5003;51025;37.772;-122.432;2023-04-24T05:08:08;13;9;
64613;PMS5003;51025;37.772;-122.432;2023-04-24T05:10:37;14;11;
64613;PMS5003;51025;37.772;-122.432;2023-04-24T05:13:05;14;11;
64613;PMS5003;51025;37.772;-122.432;2023-04-24T05:15:33;17;13;
64613;PMS5003;51025;37.772;-122.432;2023-04-24T05:18:02;14;13;
64613;PMS5003;51025;37.772;-122.432;2023-04-24T05:20:31;20;17;
64613;PMS5003;51025;37.772;-122.432;2023-04-24T05:22:59;17;15;
64613;PMS5003;51025;37.772;-122.432;2023-04-24T05:25:27;13;9;
64613;PMS5003;51025;37.772;-122.432;2023-04-24T05:27:56;15;13;
64613;PMS5003;51025;37.772;-122.432;2023-04-24T05:30:25;24;17;
64613;PMS5003;51025;37.772;-122.432;2023-04-24T05:32:53;15;15;
64613;PMS5003;51025;37.772;-122.432;2023-04-24T05:35:22;22;13;
64613;PMS5003;51025;37.772;-122.432;2023-04-24T05:37:50;16;12;
64613;PMS5003;51025;37.772;-122.432;2023-04-24T05:40:19;19;18;
64613;PMS5003;51025;37.772;-122.432;2023-04-24T05:42:47;19;19;
64613;PMS5003;51025;37.772;-122.432;2023-04-24T05:45:16;15;12;
64613;PMS5003;51025;37.772;-122.432;2023-04-24T05:47:44;14;14;
64613;PMS5003;51025;37.772;-122.432;2023-04-24T05:50:13;14;13;
64613;PMS5003;51025;37.772;-122.432;2023-04-24T05:52:41;17;14;
64613;PMS5003;51025;37.772;-122.432;2023-04-24T05:55:09;19;17;
64613;PMS5003;51025;37.772;-122.432;2023-04-24T05:57:37;14;10;
64613;PMS5003;51025;37.772;-122.432;2023-04-24T06:00:06;20;15;
64613;PMS5003;51025;37.772;-122.432;2023-04-24T06:02:36;15;14;
64613;PMS5003;51025;37.772;-122.432;2023-04-24T06:05:04;12;12;
64613;PMS5003;51025;37.772;-122.432;2023-04-24T06:07:33;12;11;
64613;PMS5003;51025;37.772;-122.432;2023-04-24T06:10:01;18;12;
64613;PMS5003;51025;37.772;-122.432;2023-04-24T06:12:30;10;9;
64613;PMS5003;51025;37.772;-122.432;2023-04-24T06:14:58;14;10;
64613;PMS5003;51025;37.772;-122.432;2023-04-24T06:17:26;13;10;
64613;PMS5003;51025;37.772;-122.432;2023-04-24T06:19:54;14;11;
64613;PMS5003;51025;37.772;-122.432;2023-04-24T06:22:23;17;13;
64613;PMS5003;51025;37.772;-122.432;2023-04-24T06:24:51;15;12;
64613;PMS5003;51025;37.772;-122.432;2023-04-24T06:27:19;19;12;
64613;PMS5003;51025;37.772;-122.432;2023-04-24T06:29:48;15;13;
64613;PMS5003;51025;37.772;-122.432;2023-04-24T06:32:16;15;12;
64613;PMS5003;51025;37.772;-122.432;2023-04-24T06:34:44;13;13;
64613;PMS5003;51025;37.772;-122.432;2023-04-24T06:37:13;21;16;
64613;PMS5003;51025;37.772;-122.432;2023-04-24T06:39:42;14;13;
64613;PMS5003;51025;37.772;-122.432;2023-04-24T06:42:11;15;10;
64613;PMS5003;51025;37.772;-122.432;2023-04-24T06:44:39;17;16;
64613;PMS5003;51025;37.772;-122.432;2023-04-24T06:47:08;15;11;
64613;PMS5003;51025;37.772;-122.432;2023-04-24T06:49:37;10;10;
64613;PMS5003;51025;37.772;-122.432;2023-04-24T06:52:06;15;11;
64613;PMS5003;51025;37.772;-122.432;2023-04-24T06:54:34;19;15;
64613;PMS5003;51025;37.772;-122.432;2023-04-24T06:57:03;11;9;
64613;PMS5003;51025;37.772;-122.432;2023-04-24T06:59:32;12;10;
64613;PMS5003;51025;37.772;-122.432;2023-04-24T07:02:00;16;15;
64613;PMS5003;51025;37.772;-122.432;2023-04-24T07:04:28;13;11;
64613;PMS5003;51025;37.772;-122.432;2023-04-24T07:06:57;9;8;
64613;PMS5003;51025;37.772;-122.432;2023-04-24T07:09:25;13;11;
64613;PMS5003;51025;37.772;-122.432;2023-04-24T07:11:54;15;12;
64613;PMS5003;51025;37.772;-122.432;2023-04-24T07:14:22;13;12;
64613;PMS5003;51025;37.772;-122.432;2023-04-24T07:16:50;11;11;
64613;PMS5003;51025;37.772;-122.432;2023-04-24T07:19:19;16;12;
64613;PMS5003;51025;37.772;-122.432;2023-04-24T07:21:47;13;11;
64613;PMS5003;51025;37.772;-122.432;2023-04-24T07:24:15;10;10;
64613;PMS5003;51025;37.772;-122.432;2023-04-24T07:26:43;9;7;
64613;PMS5003;51025;37.772;-122.432;2023-04-24T07:29:11;15;13;
64613;PMS5003;51025;37.772;-122.432;2023-04-24T07:31:40;12;9;
64613;PMS5003;51025;37.772;-122.432;2023-04-24T07:34:09;18;14;
64613;PMS5003;51025;37.772;-122.432;2023-04-24T07:36:37;9;9;
64613;PMS5003;51025;37.772;-122.432;2023-04-24T07:39:05;11;7;
64613;PMS5003;51025;37.772;-122.432;2023-04-24T07:41:33;20;15;
64613;PMS5003;51025;37.772;-122.432;2023-04-24T07:44:02;14;13;
64613;PMS5003;51025;37.772;-122.432;2023-04-24T07:46:31;8;8;
64613;PMS5003;51025;37.772;-122.432;2023-04-24T07:49:00;15;11;
64613;PMS5003;51025;37.772;-122.432;2023-04-24T07:51:29;11;9;
64613;PMS5003;51025;37.772;-122.432;2023-04-24T07:53:57;9;9;
64613;PMS5003;51025;37.772;-122.432;2023-04-24T07:56:25;12;8;
64613;PMS5003;51025;37.772;-122.432;2023-04-24T07:58:53;11;10;
64613;PMS5003;51025;37.772;-122.432;2023-04-24T08:01:21;7;7;
64613;PMS5003;51025;37.772;-122.432;2023-04-24T08:03:50;13;8;
64613;PMS5003;51025;37.772;-122.432;2023-04-24T08:06:18;10;7;
64613;PMS5003;51025;37.772;-122.432;2023-04-24T08:08:47;12;9;
64613;PMS5003;51025;37.772;-122.432;2023-04-24T08:11:16;13;12;
64613;PMS5003;51025;37.772;-122.432;2023-04-24T08:13:44;9;8;
64613;PMS5003;51025;37.772;-122.432;2023-04-24T08:16:12;10;8;
64613;PMS5003;51025;37.772;-122.432;2023-04-24T08:18:41;13;11;
64613;PMS5003;51025;37.772;-122.432;2023-04-24T08:21:09;10;8;
64613;PMS5003;51025;37.772;-122.432;2023-04-24T08:23:38;12;10;
64613;PMS5003;51025;37.772;-122.432;2023-04-24T08:26:06;12;8;
64613;PMS5003;51025;37.772;-122.432;2023-04-24T08:28:34;11;7;
64613;PMS5003;51025;37.772;-122.432;2023-04-24T08:31:02;8;7;
64613;PMS5003;51025;37.772;-122.432;2023-04-24T08:33:31;14;10;
64613;PMS5003;51025;37.772;-122.432;2023-04-24T08:36:00;9;8;
64613;PMS5003;51025;37.772;-122.432;2023-04-24T08:38:29;10;8;
64613;PMS5003;51025;37.772;-122.432;2023-04-24T08:40:59;7;7;
64613;PMS5003;51025;37.772;-122.432;2023-04-24T08:43:28;4;4;
64613;PMS5003;51025;37.772;-122.432;2023-04-24T08:45:58;12;7;
64613;PMS5003;51025;37.772;-122.432;2023-04-24T08:48:27;9;6;
64613;PMS5003;51025;37.772;-122.432;2023-04-24T08:50:55;9;7;
64613;PMS5003;51025;37.772;-122.432;2023-04-24T08:53:25;8;6;
64613;PMS5003;51025;37.772;-122.432;2023-04-24T08:55:55;7;7;
64613;PMS5003;51025;37.772;-122.432;2023-04-24T08:58:24;7;6;
64613;PMS5003;51025;37.772;-122.432;2023-04-24T09:00:54;9;8;
64613;PMS5003;51025;37.772;-122.432;2023-04-24T09:03:24;16;10;
64613;PMS5003;51025;37.772;-122.432;2023-04-24T09:05:56;5;5;
64613;PMS5003;51025;37.772;-122.432;2023-04-24T09:08:31;11;5;
64613;PMS5003;51025;37.772;-122.432;2023-04-24T09:11:02;8;5;
64613;PMS5003;51025;37.772;-122.432;2023-04-24T09:13:32;9;5;
64613;PMS5003;51025;37.772;-122.432;2023-04-24T09:16:02;10;6;
64613;PMS5003;51025;37.772;-122.432;2023-04-24T09:18:32;5;5;
64613;PMS5003;51025;37.772;-122.432;2023-04-24T09:21:02;7;6;
64613;PMS5003;51025;37.772;-122.432;2023-04-24T09:23:35;7;5;
64613;PMS5003;51025;37.772;-122.432;2023-04-24T09:26:04;7;6;
64613;PMS5003;51025;37.772;-122.432;2023-04-24T09:28:35;6;6;
64613;PMS5003;51025;37.772;-122.432;2023-04-24T09:31:06;7;5;
64613;PMS5003;51025;37.772;-122.432;2023-04-24T09:33:36;7;5;
64613;PMS5003;51025;37.772;-122.432;2023-04-24T09:36:04;6;6;
64613;PMS5003;51025;37.772;-122.432;2023-04-24T09:38:34;9;7;
64613;PMS5003;51025;37.772;-122.432;2023-04-24T09:41:05;10;8;
64613;PMS5003;51025;37.772;-122.432;2023-04-24T09:43:35;10;8;
64613;PMS5003;51025;37.772;-122.432;2023-04-24T09:46:05;9;5;
64613;PMS5003;51025;37.772;-122.432;2023-04-24T09:48:35;5;4;
64613;PMS5003;51025;37.772;-122.432;2023-04-24T09:51:05;9;5;
64613;PMS5003;51025;37.772;-122.432;2023-04-24T09:53:34;9;8;
64613;PMS5003;51025;37.772;-122.432;2023-04-24T09:56:06;8;8;
64613;PMS5003;51025;37.772;-122.432;2023-04-24T09:58:38;9;4;
64613;PMS5003;51025;37.772;-122.432;2023-04-24T10:01:07;6;6;
64613;PMS5003;51025;37.772;-122.432;2023-04-24T10:03:35;8;6;
64613;PMS5003;51025;37.772;-122.432;2023-04-24T10:06:04;9;5;
64613;PMS5003;51025;37.772;-122.432;2023-04-24T10:08:33;6;5;
64613;PMS5003;51025;37.772;-122.432;2023-04-24T10:11:03;11;8;
64613;PMS5003;51025;37.772;-122.432;2023-04-24T10:13:31;8;7;
64613;PMS5003;51025;37.772;-122.432;2023-04-24T10:16:00;3;3;
64613;PMS5003;51025;37.772;-122.432;2023-04-24T10:18:30;10;8;
64613;PMS5003;51025;37.772;-122.432;2023-04-24T10:20:58;6;4;
64613;PMS5003;51025;37.772;-122.432;2023-04-24T10:23:28;10;7;
64613;PMS5003;51025;37.772;-122.432;2023-04-24T10:25:59;4;4;
64613;PMS5003;51025;37.772;-122.432;2023-04-24T10:28:28;6;6;
64613;PMS5003;51025;37.772;-122.432;2023-04-24T10:30:59;9;6;
64613;PMS5003;51025;37.772;-122.432;2023-04-24T10:33:27;5;5;
64613;PMS5003;51025;37.772;-122.432;2023-04-24T10:35:59;9;4;
64613;PMS5003;51025;37.772;-122.432;2023-04-24T10:38:28;8;5;
64613;PMS5003;51025;37.772;-122.432;2023-04-24T10:41:07;11;6;
64613;PMS5003;51025;37.772;-122.432;2023-04-24T10:43:36;5;5;
64613;PMS5003;51025;37.772;-122.432;2023-04-24T10:46:07;5;5;
64613;PMS5003;51025;37.772;-122.432;2023-04-24T10:48:36;7;4;
64613;PMS5003;51025;37.772;-122.432;2023-04-24T10:51:11;7;3;
64613;PMS5003;51025;37.772;-122.432;2023-04-24T10:53:40;8;7;
64613;PMS5003;51025;37.772;-122.432;2023-04-24T10:56:09;7;6;
64613;PMS5003;51025;37.772;-122.432;2023-04-24T10:58:43;11;7;
64613;PMS5003;51025;37.772;-122.432;2023-04-24T11:01:23;11;8;
64613;PMS5003;51025;37.772;-122.432;2023-04-24T11:03:54;8;6;
64613;PMS5003;51025;37.772;-122.432;2023-04-24T11:06:28;7;7;
64613;PMS5003;51025;37.772;-122.432;2023-04-24T11:09:01;7;6;
64613;PMS5003;51025;37.772;-122.432;2023-04-24T11:11:31;6;5;
64613;PMS5003;51025;37.772;-122.432;2023-04-24T11:14:02;6;4;
64613;PMS5003;51025;37.772;-122.432;2023-04-24T11:16:33;4;4;
64613;PMS5003;51025;37.772;-122.432;2023-04-24T11:19:05;5;5;
64613;PMS5003;51025;37.772;-122.432;2023-04-24T11:21:42;7;6;
64613;PMS5003;51025;37.772;-122.432;2023-04-24T11:24:28;6;5;
64613;PMS5003;51025;37.772;-122.432;2023-04-24T11:26:58;5;3;
64613;PMS5003;51025;37.772;-122.432;2023-04-24T11:29:40;7;5;
64613;PMS5003;51025;37.772;-122.432;2023-04-24T11:32:14;5;3;
64613;PMS5003;51025;37.772;-122.432;2023-04-24T11:34:46;7;4;
64613;PMS5003;51025;37.772;-122.432;2023-04-24T11:37:16;5;4;
64613;PMS5003;51025;37.772;-122.432;2023-04-24T11:39:44;8;7;
64613;PMS5003;51025;37.772;-122.432;2023-04-24T11:42:14;7;5;
64613;PMS5003;51025;37.772;-122.432;2023-04-24T11:44:42;6;6;
64613;PMS5003;51025;37.772;-122.432;2023-04-24T11:47:12;6;5;
64613;PMS5003;51025;37.772;-122.432;2023-04-24T11:49:40;8;6;
64613;PMS5003;51025;37.772;-122.432;2023-04-24T11:52:08;11;6;
64613;PMS5003;51025;37.772;-122.432;2023-04-24T11:54:37;5;4;
64613;PMS5003;51025;37.772;-122.432;2023-04-24T11:57:13;6;5;
64613;PMS5003;51025;37.772;-122.432;2023-04-24T11:59:41;7;5;
64613;PMS5003;51025;37.772;-122.432;2023-04-24T12:02:09;12;5;
64613;PMS5003;51025;37.772;-122.432;2023-04-24T12:04:48;5;4;
64613;PMS5003;51025;37.772;-122.432;2023-04-24T12:07:16;7;7;
64613;PMS5003;51025;37.772;-122.432;2023-04-24T12:09:46;5;5;
64613;PMS5003;51025;37.772;-122.432;2023-04-24T12:12:16;8;5;
64613;PMS5003;51025;37.772;-122.432;2023-04-24T12:14:47;5;5;
64613;PMS5003;51025;37.772;-122.432;2023-04-24T12:17:15;7;7;
64613;PMS5003;51025;37.772;-122.432;2023-04-24T12:19:46;8;7;
64613;PMS5003;51025;37.772;-122.432;2023-04-24T12:22:15;7;7;
64613;PMS5003;51025;37.772;-122.432;2023-04-24T12:24:59;9;7;
64613;PMS5003;51025;37.772;-122.432;2023-04-24T12:27:30;7;6;
64613;PMS5003;51025;37.772;-122.432;2023-04-24T12:30:00;8;6;
64613;PMS5003;51025;37.772;-122.432;2023-04-24T12:32:29;8;7;
64613;PMS5003;51025;37.772;-122.432;2023-04-24T12:34:58;11;8;
64613;PMS5003;51025;37.772;-122.432;2023-04-24T12:37:32;11;9;
64613;PMS5003;51025;37.772;-122.432;2023-04-24T12:40:02;16;12;
64613;PMS5003;51025;37.772;-122.432;2023-04-24T12:42:33;8;8;
64613;PMS5003;51025;37.772;-122.432;2023-04-24T12:45:03;11;11;
64613;PMS5003;51025;37.772;-122.432;2023-04-24T12:47:33;12;9;
64613;PMS5003;51025;37.772;-122.432;2023-04-24T12:50:02;8;8;
64613;PMS5003;51025;37.772;-122.432;2023-04-24T12:52:31;10;8;
64613;PMS5003;51025;37.772;-122.432;2023-04-24T12:55:00;13;9;
64613;PMS5003;51025;37.772;-122.432;2023-04-24T12:57:29;13;7;
64613;PMS5003;51025;37.772;-122.432;2023-04-24T12:59:58;10;9;
64613;PMS5003;51025;37.772;-122.432;2023-04-24T13:02:28;11;7;
64613;PMS5003;51025;37.772;-122.432;2023-04-24T13:04:57;7;5;
64613;PMS5003;51025;37.772;-122.432;2023-04-24T13:07:26;6;5;
64613;PMS5003;51025;37.772;-122.432;2023-04-24T13:09:55;8;6;
64613;PMS5003;51025;37.772;-122.432;2023-04-24T13:12:23;5;4;
64613;PMS5003;51025;37.772;-122.432;2023-04-24T13:14:52;9;7;
64613;PMS5003;51025;37.772;-122.432;2023-04-24T13:17:21;13;12;
64613;PMS5003;51025;37.772;-122.432;2023-04-24T13:19:50;9;9;
64613;PMS5003;51025;37.772;-122.432;2023-04-24T13:22:21;8;8;
64613;PMS5003;51025;37.772;-122.432;2023-04-24T13:24:50;9;7;
64613;PMS5003;51025;37.772;-122.432;2023-04-24T13:27:18;8;7;
64613;PMS5003;51025;37.772;-122.432;2023-04-24T13:29:46;8;8;
64613;PMS5003;51025;37.772;-122.432;2023-04-24T13:32:14;11;7;
64613;PMS5003;51025;37.772;-122.432;2023-04-24T13:34:42;8;8;
64613;PMS5003;51025;37.772;-122.432;2023-04-24T13:37:10;10;7;
64613;PMS5003;51025;37.772;-122.432;2023-04-24T13:39:39;5;5;
64613;PMS5003;51025;37.772;-122.432;2023-04-24T13:42:07;10;6;
64613;PMS5003;51025;37.772;-122.432;2023-04-24T13:44:35;6;5;
64613;PMS5003;51025;37.772;-122.432;2023-04-24T13:47:05;8;6;
64613;PMS5003;51025;37.772;-122.432;2023-04-24T13:49:33;5;5;
64613;PMS5003;51025;37.772;-122.432;2023-04-24T13:52:02;15;13;
64613;PMS5003;51025;37.772;-122.432;2023-04-24T13:54:31;8;6;
64613;PMS5003;51025;37.772;-122.432;2023-04-24T13:56:59;6;6;
64613;PMS5003;51025;37.772;-122.432;2023-04-24T13:59:27;10;8;
64613;PMS5003;51025;37.772;-122.432;2023-04-24T14:01:55;9;5;
64613;PMS5003;51025;37.772;-122.432;2023-04-24T14:04:23;4;4;
64613;PMS5003;51025;37.772;-122.432;2023-04-24T14:06:51;6;5;
64613;PMS5003;51025;37.772;-122.432;2023-04-24T14:09:19;6;6;
64613;PMS5003;51025;37.772;-122.432;2023-04-24T14:11:47;10;6;
64613;PMS5003;51025;37.772;-122.432;2023-04-24T14:14:16;6;5;
64613;PMS5003;51025;37.772;-122.432;2023-04-24T14:16:44;10;5;
64613;PMS5003;51025;37.772;-122.432;2023-04-24T14:19:12;4;2;
64613;PMS5003;51025;37.772;-122.432;2023-04-24T14:21:40;6;5;
64613;PMS5003;51025;37.772;-122.432;2023-04-24T14:24:08;8;6;
64613;PMS5003;51025;37.772;-122.432;2023-04-24T14:26:45;5;5;
64613;PMS5003;51025;37.772;-122.432;2023-04-24T14:29:13;7;5;
64613;PMS5003;51025;37.772;-122.432;2023-04-24T14:31:42;8;6;
64613;PMS5003;51025;37.772;-122.432;2023-04-24T14:34:10;9;7;
64613;PMS5003;51025;37.772;-122.432;2023-04-24T14:36:39;5;5;
64613;PMS5003;51025;37.772;-122.432;2023-04-24T14:39:08;6;5;
64613;PMS5003;51025;37.772;-122.432;2023-04-24T14:41:36;7;6;
64613;PMS5003;51025;37.772;-122.432;2023-04-24T14:44:05;12;8;
64613;PMS5003;51025;37.772;-122.432;2023-04-24T14:46:34;6;6;
64613;PMS5003;51025;37.772;-122.432;2023-04-24T14:49:02;9;8;
64613;PMS5003;51025;37.772;-122.432;2023-04-24T14:51:31;7;7;
64613;PMS5003;51025;37.772;-122.432;2023-04-24T14:53:59;9;5;
64613;PMS5003;51025;37.772;-122.432;2023-04-24T14:56:27;7;6;
64613;PMS5003;51025;37.772;-122.432;2023-04-24T14:58:56;9;6;
64613;PMS5003;51025;37.772;-122.432;2023-04-24T15:01:25;7;6;
64613;PMS5003;51025;37.772;-122.432;2023-04-24T15:03:53;6;6;
64613;PMS5003;51025;37.772;-122.432;2023-04-24T15:06:21;10;10;
64613;PMS5003;51025;37.772;-122.432;2023-04-24T15:08:50;6;5;
64613;PMS5003;51025;37.772;-122.432;2023-04-24T15:11:18;8;8;
64613;PMS5003;51025;37.772;-122.432;2023-04-24T15:13:46;8;7;
64613;PMS5003;51025;37.772;-122.432;2023-04-24T15:16:15;13;12;
64613;PMS5003;51025;37.772;-122.432;2023-04-24T15:18:43;6;6;
64613;PMS5003;51025;37.772;-122.432;2023-04-24T15:21:11;11;7;
64613;PMS5003;51025;37.772;-122.432;2023-04-24T15:23:39;6;6;
64613;PMS5003;51025;37.772;-122.432;2023-04-24T15:26:07;9;7;
64613;PMS5003;51025;37.772;-122.432;2023-04-24T15:28:35;9;8;
64613;PMS5003;51025;37.772;-122.432;2023-04-24T15:31:03;8;6;
64613;PMS5003;51025;37.772;-122.432;2023-04-24T15:33:32;7;6;
64613;PMS5003;51025;37.772;-122.432;2023-04-24T15:36:00;10;8;
64613;PMS5003;51025;37.772;-122.432;2023-04-24T15:38:31;6;5;
64613;PMS5003;51025;37.772;-122.432;2023-04-24T15:40:59;8;8;
64613;PMS5003;51025;37.772;-122.432;2023-04-24T15:43:27;8;7;
64613;PMS5003;51025;37.772;-122.432;2023-04-24T15:45:55;10;8;
64613;PMS5003;51025;37.772;-122.432;2023-04-24T15:48:24;10;7;
64613;PMS5003;51025;37.772;-122.432;2023-04-24T15:50:54;9;9;
64613;PMS5003;51025;37.772;-122.432;2023-04-24T15:53:22;10;6;
64613;PMS5003;51025;37.772;-122.432;2023-04-24T15:55:50;13;10;
64613;PMS5003;51025;37.772;-122.432;2023-04-24T15:58:19;10;8;